Terminal Aerodrome Forecast
Issued by NWS Portland, ME

Home | Current Version | Previous Version | Text Only | Print | Product List | Glossary On
Versions: 1 2 3 4 5 6 7 8 9 10 11 12 13 14 15 16 17 18 19 20 21 22 23 24 25 26
122
FTUS41 KGYX 201737
TAFCON
TAF
KCON 201737Z 2018/2118 21005KT P6SM SCT070
     FM210000 18003KT P6SM SCT050 WS015/25040KT
     FM210700 00000KT 1SM BR SCT003 WS015/25040KT
      TEMPO 2108/2112 1/2SM FG OVC003
     FM211400 22007KT P6SM SCT050 WS020/26040KT=

USA.gov is the U.S. government's official web portal to all federal, state and local government web resources and services.